createdAt,value
2024-03-04T00:01:00.340Z,100163.66
2024-03-04T00:03:28.377Z,100163.72
2024-03-04T00:06:06.713Z,100161.97
2024-03-04T00:08:40.501Z,100161.78
2024-03-04T00:11:09.047Z,100170.25
2024-03-04T00:13:44.609Z,100158.50
2024-03-04T00:16:15.156Z,100171.50
2024-03-04T00:18:43.298Z,100171.56
2024-03-04T00:21:16.859Z,100167.91
2024-03-04T00:23:58.174Z,100170.00
2024-03-04T00:26:27.344Z,100166.75
2024-03-04T00:28:57.047Z,100160.13
2024-03-04T00:31:24.861Z,100169.91
2024-03-04T00:33:53.978Z,100171.81
2024-03-04T00:36:24.230Z,100166.44
2024-03-04T00:38:53.738Z,100172.09
2024-03-04T00:41:24.705Z,100176.56
2024-03-04T00:43:52.677Z,100174.03
2024-03-04T00:46:20.937Z,100165.81
2024-03-04T00:48:49.146Z,100166.53
2024-03-04T00:51:17.166Z,100174.06
2024-03-04T00:53:46.495Z,100176.19
2024-03-04T00:56:18.324Z,100167.16
2024-03-04T00:58:46.407Z,100190.81
2024-03-04T01:01:15.069Z,100176.97
2024-03-04T01:03:43.065Z,100181.72
2024-03-04T01:06:11.100Z,100175.09
2024-03-04T01:08:39.428Z,100183.66
2024-03-04T01:11:08.835Z,100188.00
2024-03-04T01:13:38.913Z,100190.78
2024-03-04T01:16:08.018Z,100183.16
2024-03-04T01:18:36.671Z,100183.34
2024-03-04T01:21:07.555Z,100200.63
2024-03-04T01:23:35.632Z,100191.69
2024-03-04T01:26:03.668Z,100193.72
2024-03-04T01:28:31.752Z,100189.28
2024-03-04T01:31:01.818Z,100197.72
2024-03-04T01:33:30.807Z,100203.06
2024-03-04T01:35:58.809Z,100195.91
2024-03-04T01:38:27.807Z,100204.16
2024-03-04T01:40:55.782Z,100187.06
2024-03-04T01:43:23.915Z,100189.59
2024-03-04T01:45:53.039Z,100197.41
2024-03-04T01:48:23.833Z,100195.41
2024-03-04T01:50:55.354Z,100196.78
2024-03-04T01:53:27.714Z,100195.41
2024-03-04T01:55:59.885Z,100184.75
2024-03-04T01:58:29.273Z,100192.31
2024-03-04T02:00:58.277Z,100198.00
2024-03-04T02:03:30.451Z,100200.84
2024-03-04T02:06:00.464Z,100204.06
2024-03-04T02:08:30.548Z,100203.03
2024-03-04T02:10:59.559Z,100202.44
2024-03-04T02:13:28.745Z,100199.25
2024-03-04T02:15:57.620Z,100202.25
2024-03-04T02:18:27.697Z,100200.84
2024-03-04T02:21:02.230Z,100204.34
2024-03-04T02:23:31.530Z,100204.97
2024-03-04T02:25:59.918Z,100216.91
2024-03-04T02:28:29.705Z,100210.28
2024-03-04T02:31:04.447Z,100214.41
2024-03-04T02:33:32.969Z,100216.59
2024-03-04T02:36:01.485Z,100228.34
2024-03-04T02:38:32.800Z,100221.31
2024-03-04T02:41:04.765Z,100228.13
2024-03-04T02:43:33.094Z,100232.66
2024-03-04T02:46:01.176Z,100225.72
2024-03-04T02:48:29.252Z,100238.09
2024-03-04T02:50:57.238Z,100236.97
2024-03-04T02:53:25.192Z,100240.19
2024-03-04T02:55:54.597Z,100254.44
2024-03-04T02:58:22.657Z,100244.00
2024-03-04T03:00:50.683Z,100247.41
2024-03-04T03:03:23.573Z,100248.41
2024-03-04T03:05:51.508Z,100257.59
2024-03-04T03:08:19.469Z,100254.91
2024-03-04T03:10:48.277Z,100262.22
2024-03-04T03:13:18.308Z,100257.47
2024-03-04T03:15:46.402Z,100255.56
2024-03-04T03:18:15.050Z,100254.53
2024-03-04T03:20:43.164Z,100258.94
2024-03-04T03:23:11.438Z,100258.59
2024-03-04T03:25:39.453Z,100259.94
2024-03-04T03:28:08.030Z,100265.03
2024-03-04T03:30:37.503Z,100269.34
2024-03-04T03:33:06.223Z,100274.25
2024-03-04T03:35:34.606Z,100275.75
2024-03-04T03:38:02.728Z,100279.97
2024-03-04T03:40:31.066Z,100274.34
2024-03-04T03:42:59.075Z,100282.69
2024-03-04T03:45:27.064Z,100280.25
2024-03-04T03:47:56.526Z,100284.00
2024-03-04T03:50:24.575Z,100293.38
2024-03-04T03:52:52.630Z,100277.72
2024-03-04T03:55:20.611Z,100274.50
2024-03-04T03:57:57.583Z,100281.16
2024-03-04T04:00:29.133Z,100259.44
2024-03-04T04:03:00.901Z,100285.34
2024-03-04T04:05:28.957Z,100294.56
2024-03-04T04:07:56.914Z,100296.16
2024-03-04T04:10:25.192Z,100294.84
2024-03-04T04:12:53.754Z,100296.75
2024-03-04T04:15:21.886Z,100295.44
2024-03-04T04:17:49.938Z,100299.91
2024-03-04T04:20:19.811Z,100307.81
2024-03-04T04:22:47.937Z,100305.66
2024-03-04T04:25:16.027Z,100311.63
2024-03-04T04:27:44.644Z,100308.97
2024-03-04T04:30:13.761Z,100310.72
2024-03-04T04:32:42.677Z,100323.19
2024-03-04T04:35:11.021Z,100319.50
2024-03-04T04:37:40.361Z,100316.75
2024-03-04T04:40:11.034Z,100318.28
2024-03-04T04:42:39.874Z,100317.19
2024-03-04T04:45:08.975Z,100324.09
2024-03-04T04:47:36.972Z,100322.00
2024-03-04T04:50:05.653Z,100333.78
2024-03-04T04:52:34.307Z,100330.84
2024-03-04T04:55:04.203Z,100338.69
2024-03-04T04:57:32.157Z,100336.06
2024-03-04T05:00:00.072Z,100335.47
2024-03-04T05:02:28.446Z,100339.66
2024-03-04T05:04:58.524Z,100343.50
2024-03-04T05:07:27.695Z,100332.59
2024-03-04T05:09:56.972Z,100329.66
2024-03-04T05:12:26.614Z,100340.34
2024-03-04T05:14:54.700Z,100324.84
2024-03-04T05:17:22.805Z,100332.88
2024-03-04T05:20:11.115Z,100334.03
2024-03-04T05:22:39.669Z,100340.41
2024-03-04T05:25:09.381Z,100337.69
2024-03-04T05:27:37.543Z,100342.50
2024-03-04T05:30:06.584Z,100340.56
2024-03-04T05:32:34.545Z,100353.97
2024-03-04T05:35:02.572Z,100356.22
2024-03-04T05:37:32.056Z,100352.47
2024-03-04T05:40:00.130Z,100352.94
2024-03-04T05:42:28.266Z,100355.81
2024-03-04T05:44:56.304Z,100364.78
2024-03-04T05:47:24.309Z,100361.59
2024-03-04T05:49:52.282Z,100363.38
2024-03-04T05:52:20.293Z,100367.69
2024-03-04T05:54:49.641Z,100372.34
2024-03-04T05:57:17.639Z,100368.47
2024-03-04T05:59:46.014Z,100369.41
2024-03-04T06:02:14.101Z,100367.72
2024-03-04T06:04:42.308Z,100377.00
2024-03-04T06:07:10.367Z,100375.69
2024-03-04T06:09:38.404Z,100375.16
2024-03-04T06:12:09.372Z,100361.25
2024-03-04T06:14:37.344Z,100376.09
2024-03-04T06:17:05.725Z,100379.25
2024-03-04T06:19:34.414Z,100385.13
2024-03-04T06:22:08.220Z,100390.06
2024-03-04T06:24:40.391Z,100395.53
2024-03-04T06:27:09.963Z,100383.47
2024-03-04T06:29:37.692Z,100393.63
2024-03-04T06:32:06.913Z,100392.28
2024-03-04T06:34:35.136Z,100392.16
2024-03-04T06:37:03.234Z,100394.06
2024-03-04T06:39:31.204Z,100389.84
2024-03-04T06:41:59.223Z,100400.66
2024-03-04T06:44:28.551Z,100405.09
2024-03-04T06:46:56.539Z,100405.97
2024-03-04T06:49:24.598Z,100411.28
2024-03-04T06:51:52.567Z,100408.00
2024-03-04T06:54:20.761Z,100414.91
2024-03-04T06:56:49.019Z,100414.91
2024-03-04T06:59:19.589Z,100414.44
2024-03-04T07:01:49.079Z,100413.59
2024-03-04T07:04:17.188Z,100415.56
2024-03-04T07:06:45.476Z,100420.91
2024-03-04T07:09:13.642Z,100426.25
2024-03-04T07:11:41.725Z,100427.66
2024-03-04T07:14:09.805Z,100430.78
2024-03-04T07:16:38.013Z,100437.44
2024-03-04T07:19:07.710Z,100434.44
2024-03-04T07:21:35.674Z,100437.94
2024-03-04T07:24:04.385Z,100439.78
2024-03-04T07:26:32.612Z,100450.03
2024-03-04T07:29:01.970Z,100445.06
2024-03-04T07:31:30.281Z,100437.19
2024-03-04T07:33:58.474Z,100442.78
2024-03-04T07:36:28.016Z,100438.06
2024-03-04T07:38:56.113Z,100444.63
2024-03-04T07:41:25.395Z,100441.75
2024-03-04T07:43:53.799Z,100443.31
2024-03-04T07:46:22.176Z,100451.41
2024-03-04T07:48:50.587Z,100444.03
2024-03-04T07:51:18.605Z,100454.00
2024-03-04T07:53:48.188Z,100453.50
2024-03-04T07:56:16.272Z,100460.56
2024-03-04T07:58:44.335Z,100454.34
2024-03-04T08:01:13.802Z,100458.00
2024-03-04T08:03:42.323Z,100459.63
2024-03-04T08:06:10.507Z,100465.25
2024-03-04T08:08:38.612Z,100461.44
2024-03-04T08:11:08.307Z,100459.69
2024-03-04T08:13:36.485Z,100458.78
2024-03-04T08:16:05.298Z,100467.25
2024-03-04T08:18:33.505Z,100481.94
2024-03-04T08:21:01.593Z,100482.75
2024-03-04T08:23:29.805Z,100489.09
2024-03-04T08:25:58.256Z,100495.44
2024-03-04T08:28:32.719Z,100491.97
2024-03-04T08:31:05.670Z,100489.59
2024-03-04T08:33:34.160Z,100498.69
2024-03-04T08:36:02.461Z,100504.91
2024-03-04T08:38:33.127Z,100506.03
2024-03-04T08:41:04.505Z,100515.00
2024-03-04T08:43:34.517Z,100508.34
2024-03-04T08:46:02.731Z,100517.78
2024-03-04T08:48:30.800Z,100518.38
2024-03-04T08:50:59.410Z,100526.81
2024-03-04T08:53:27.592Z,100534.16
2024-03-04T08:55:57.859Z,100529.66
2024-03-04T08:58:26.012Z,100533.84
2024-03-04T09:00:55.557Z,100533.69
2024-03-04T09:03:23.737Z,100538.53
2024-03-04T09:05:51.899Z,100531.47
2024-03-04T09:08:20.106Z,100534.13
2024-03-04T09:10:49.513Z,100536.19
2024-03-04T09:13:18.672Z,100533.50
2024-03-04T09:15:47.085Z,100534.56
2024-03-04T09:18:16.619Z,100535.06
2024-03-04T09:20:45.349Z,100529.28
2024-03-04T09:23:13.856Z,100539.13
2024-03-04T09:25:43.085Z,100543.50
2024-03-04T09:28:11.392Z,100537.66
2024-03-04T09:30:39.622Z,100538.47
2024-03-04T09:33:08.539Z,100534.50
2024-03-04T09:35:38.672Z,100536.84
2024-03-04T09:38:07.468Z,100544.31
2024-03-04T09:40:36.330Z,100538.84
2024-03-04T09:43:05.481Z,100543.66
2024-03-04T09:45:36.282Z,100553.66
2024-03-04T09:48:06.328Z,100549.72
2024-03-04T09:50:36.028Z,100551.34
2024-03-04T09:53:07.315Z,100553.44
2024-03-04T09:55:35.410Z,100566.34
2024-03-04T09:58:05.515Z,100562.78
2024-03-04T10:00:39.038Z,100566.47
2024-03-04T10:03:10.434Z,100569.41
2024-03-04T10:05:39.998Z,100564.69
2024-03-04T10:08:09.617Z,100565.56
2024-03-04T10:10:37.526Z,100567.38
2024-03-04T10:13:11.337Z,100572.16
2024-03-04T10:15:41.854Z,100576.91
2024-03-04T10:18:14.694Z,100574.28
2024-03-04T10:20:43.287Z,100570.28
2024-03-04T10:23:13.841Z,100573.25
2024-03-04T10:25:42.659Z,100578.19
2024-03-04T10:28:13.062Z,100573.22
2024-03-04T10:30:41.827Z,100574.22
2024-03-04T10:33:10.758Z,100574.09
2024-03-04T10:35:39.225Z,100572.44
2024-03-04T10:38:10.614Z,100574.44
2024-03-04T10:40:40.356Z,100570.88
2024-03-04T10:43:09.335Z,100574.44
2024-03-04T10:45:39.171Z,100579.31
2024-03-04T10:48:08.635Z,100580.47
2024-03-04T10:50:37.090Z,100581.59
2024-03-04T10:53:06.526Z,100582.00
2024-03-04T10:55:35.231Z,100587.38
2024-03-04T10:58:06.181Z,100591.63
2024-03-04T11:00:37.541Z,100588.44
2024-03-04T11:03:16.698Z,100594.56
2024-03-04T11:05:52.537Z,100585.84
2024-03-04T11:08:30.903Z,100587.69
2024-03-04T11:11:09.259Z,100586.47
2024-03-04T11:13:51.872Z,100594.19
2024-03-04T11:16:26.623Z,100587.34
2024-03-04T11:19:06.733Z,100595.34
2024-03-04T11:21:36.589Z,100587.63
2024-03-04T11:24:07.687Z,100597.44
2024-03-04T11:26:38.545Z,100596.47
2024-03-04T11:29:10.005Z,100595.50
2024-03-04T11:31:38.480Z,100594.44
2024-03-04T11:34:10.745Z,100592.88
2024-03-04T11:36:40.600Z,100592.56
2024-03-04T11:39:17.908Z,100593.56
2024-03-04T11:41:49.434Z,100591.97
2024-03-04T11:44:26.620Z,100596.47
2024-03-04T11:46:56.320Z,100600.84
2024-03-04T11:49:29.501Z,100603.44
2024-03-04T11:52:07.327Z,100596.22
2024-03-04T11:54:45.353Z,100595.34
2024-03-04T11:57:18.101Z,100600.78
2024-03-04T12:00:01.168Z,100599.16
2024-03-04T12:02:29.975Z,100597.41
2024-03-04T12:04:59.608Z,100589.81
2024-03-04T12:07:29.356Z,100593.88
2024-03-04T12:10:08.942Z,100598.66
2024-03-04T12:12:43.095Z,100590.56
2024-03-04T12:15:13.105Z,100589.25
2024-03-04T12:17:42.265Z,100594.97
2024-03-04T12:20:11.798Z,100590.34
2024-03-04T12:22:40.120Z,100589.06
2024-03-04T12:25:11.252Z,100591.25
2024-03-04T12:27:41.865Z,100595.63
2024-03-04T12:30:15.091Z,100593.97
2024-03-04T12:32:47.176Z,100588.53
2024-03-04T12:35:17.528Z,100589.69
2024-03-04T12:37:46.005Z,100593.06
2024-03-04T12:40:15.590Z,100593.56
2024-03-04T12:42:44.063Z,100605.75
2024-03-04T12:45:14.144Z,100600.47
2024-03-04T12:47:42.959Z,100589.38
2024-03-04T12:50:12.885Z,100596.09
2024-03-04T12:52:43.975Z,100596.25
2024-03-04T12:55:16.382Z,100594.75
2024-03-04T12:57:45.136Z,100598.63
2024-03-04T13:00:15.861Z,100599.44
2024-03-04T13:02:44.572Z,100601.22
2024-03-04T13:05:13.711Z,100596.19
2024-03-04T13:07:43.374Z,100597.59
2024-03-04T13:10:14.250Z,100596.94
2024-03-04T13:12:44.423Z,100598.72
2024-03-04T13:15:14.644Z,100599.59
2024-03-04T13:17:44.552Z,100605.28
2024-03-04T13:20:14.900Z,100595.31
2024-03-04T13:22:45.773Z,100600.97
2024-03-04T13:25:14.013Z,100606.25
2024-03-04T13:27:42.738Z,100595.81
2024-03-04T13:30:15.157Z,100597.09
2024-03-04T13:32:43.236Z,100593.41
2024-03-04T13:35:11.535Z,100594.69
2024-03-04T13:37:40.868Z,100593.22
2024-03-04T13:40:11.627Z,100595.16
2024-03-04T13:42:40.076Z,100591.31
2024-03-04T13:45:09.184Z,100594.16
2024-03-04T13:47:39.122Z,100590.34
2024-03-04T13:50:07.818Z,100584.53
2024-03-04T13:52:35.937Z,100594.63
2024-03-04T13:55:04.133Z,100595.28
2024-03-04T13:57:33.253Z,100589.06
2024-03-04T14:00:01.246Z,100597.88
2024-03-04T14:02:29.289Z,100591.91
2024-03-04T14:04:58.743Z,100600.09
2024-03-04T14:07:27.000Z,100587.59
2024-03-04T14:09:56.253Z,100600.41
2024-03-04T14:12:24.413Z,100589.81
2024-03-04T14:14:52.421Z,100593.84
2024-03-04T14:17:20.485Z,100593.06
2024-03-04T14:19:48.552Z,100595.31
2024-03-04T14:22:17.904Z,100588.91
2024-03-04T14:24:47.181Z,100601.28
2024-03-04T14:27:15.220Z,100594.19
2024-03-04T14:29:44.304Z,100592.59
2024-03-04T14:32:12.397Z,100597.25
2024-03-04T14:34:40.409Z,100604.16
2024-03-04T14:37:08.407Z,100598.50
2024-03-04T14:39:37.775Z,100593.97
2024-03-04T14:42:06.277Z,100589.09
2024-03-04T14:44:34.652Z,100586.38
2024-03-04T14:47:02.688Z,100598.22
2024-03-04T14:49:30.944Z,100591.69
2024-03-04T14:51:58.876Z,100597.16
2024-03-04T14:54:26.826Z,100595.03
2024-03-04T14:56:56.117Z,100594.09
2024-03-04T14:59:24.646Z,100605.38
2024-03-04T15:01:52.745Z,100599.19
2024-03-04T15:04:20.693Z,100596.84
2024-03-04T15:06:49.938Z,100596.88
2024-03-04T15:09:17.924Z,100593.63
2024-03-04T15:11:46.067Z,100593.00
2024-03-04T15:14:16.433Z,100600.25
2024-03-04T15:16:51.002Z,100600.22
2024-03-04T15:19:19.817Z,100601.53
2024-03-04T15:21:46.996Z,100601.97
2024-03-04T15:24:15.148Z,100606.19
2024-03-04T15:26:43.476Z,100605.88
2024-03-04T15:29:11.406Z,100603.44
2024-03-04T15:31:40.832Z,100606.03
2024-03-04T15:34:08.732Z,100610.06
2024-03-04T15:36:42.494Z,100610.91
2024-03-04T15:39:17.028Z,100616.38
2024-03-04T15:41:49.370Z,100604.34
2024-03-04T15:44:17.238Z,100617.84
2024-03-04T15:46:49.437Z,100618.78
2024-03-04T15:49:19.062Z,100624.75
2024-03-04T15:51:47.386Z,100616.06
2024-03-04T15:54:16.987Z,100617.03
2024-03-04T15:56:45.097Z,100626.81
2024-03-04T15:59:13.760Z,100616.72
2024-03-04T16:01:41.863Z,100618.16
2024-03-04T16:04:11.372Z,100615.53
2024-03-04T16:06:43.619Z,100620.38
2024-03-04T16:09:14.050Z,100624.22
2024-03-04T16:11:42.251Z,100631.31
2024-03-04T16:14:10.376Z,100635.50
2024-03-04T16:16:38.437Z,100642.22
2024-03-04T16:19:06.614Z,100637.84
2024-03-04T16:21:36.125Z,100640.41
2024-03-04T16:24:04.118Z,100640.38
2024-03-04T16:26:32.817Z,100643.06
2024-03-04T16:29:01.319Z,100651.22
2024-03-04T16:31:33.202Z,100660.00
2024-03-04T16:34:02.669Z,100662.41
2024-03-04T16:36:30.607Z,100662.75
2024-03-04T16:38:59.946Z,100675.69
2024-03-04T16:41:27.978Z,100669.72
2024-03-04T16:43:56.034Z,100670.63
2024-03-04T16:46:24.084Z,100672.97
2024-03-04T16:48:52.031Z,100670.53
2024-03-04T16:51:20.022Z,100681.00
2024-03-04T16:53:47.971Z,100681.63
2024-03-04T16:56:17.446Z,100680.66
2024-03-04T16:58:45.531Z,100685.72
2024-03-04T17:01:13.875Z,100687.59
2024-03-04T17:03:42.417Z,100689.47
2024-03-04T17:06:10.368Z,100698.34
2024-03-04T17:08:38.401Z,100705.25
2024-03-04T17:11:07.416Z,100691.91
2024-03-04T17:13:37.475Z,100698.22
2024-03-04T17:16:06.588Z,100699.75
2024-03-04T17:18:34.614Z,100709.34
2024-03-04T17:21:03.195Z,100698.97
2024-03-04T17:23:31.281Z,100705.44
2024-03-04T17:25:59.252Z,100710.28
2024-03-04T17:28:27.216Z,100709.56
2024-03-04T17:30:57.328Z,100711.69
2024-03-04T17:33:26.674Z,100711.69
2024-03-04T17:35:54.594Z,100720.59
2024-03-04T17:38:22.543Z,100714.03
2024-03-04T17:40:50.585Z,100723.00
2024-03-04T17:43:18.589Z,100721.31
2024-03-04T17:45:46.702Z,100722.72
2024-03-04T17:48:16.122Z,100724.53
2024-03-04T17:50:44.265Z,100726.22
2024-03-04T17:53:13.502Z,100726.44
2024-03-04T17:55:42.879Z,100730.97
2024-03-04T17:58:12.481Z,100723.41
2024-03-04T18:00:40.447Z,100724.53
2024-03-04T18:03:08.550Z,100731.59
2024-03-04T18:05:37.858Z,100733.41
2024-03-04T18:08:06.840Z,100732.91
2024-03-04T18:10:34.924Z,100739.75
2024-03-04T18:13:06.439Z,100749.53
2024-03-04T18:15:34.782Z,100742.19
2024-03-04T18:18:02.937Z,100750.66
2024-03-04T18:20:31.869Z,100754.47
2024-03-04T18:23:01.351Z,100759.00
2024-03-04T18:25:29.524Z,100761.94
2024-03-04T18:27:57.602Z,100764.25
2024-03-04T18:30:25.651Z,100762.66
2024-03-04T18:32:54.760Z,100763.03
2024-03-04T18:35:22.904Z,100769.06
2024-03-04T18:37:51.408Z,100761.63
2024-03-04T18:40:21.242Z,100761.50
2024-03-04T18:42:49.084Z,100765.66
2024-03-04T18:45:17.582Z,100764.84
2024-03-04T18:47:46.103Z,100762.66
2024-03-04T18:50:14.817Z,100762.25
2024-03-04T18:52:42.832Z,100764.84
2024-03-04T18:55:12.084Z,100765.06
2024-03-04T18:57:41.735Z,100766.47
2024-03-04T19:00:11.571Z,100772.91
2024-03-04T19:02:40.095Z,100768.69
2024-03-04T19:05:09.577Z,100768.59
2024-03-04T19:07:37.771Z,100770.41
2024-03-04T19:10:08.052Z,100772.34
2024-03-04T19:12:36.553Z,100778.69
2024-03-04T19:15:08.901Z,100774.66
2024-03-04T19:17:36.995Z,100773.94
2024-03-04T19:20:07.812Z,100775.75
2024-03-04T19:22:35.749Z,100780.09
2024-03-04T19:25:05.955Z,100790.38
2024-03-04T19:27:34.169Z,100790.78
2024-03-04T19:30:02.421Z,100791.81
2024-03-04T19:32:32.115Z,100789.56
2024-03-04T19:35:02.007Z,100788.34
2024-03-04T19:37:30.080Z,100788.66
2024-03-04T19:39:58.466Z,100792.09
2024-03-04T19:42:26.539Z,100792.09
2024-03-04T19:44:54.473Z,100793.19
2024-03-04T19:47:26.837Z,100794.50
2024-03-04T19:49:58.029Z,100796.31
2024-03-04T19:52:26.068Z,100792.91
2024-03-04T19:54:54.072Z,100792.28
2024-03-04T19:57:26.179Z,100793.59
2024-03-04T19:59:58.836Z,100806.19
2024-03-04T20:02:26.816Z,100804.13
2024-03-04T20:04:54.821Z,100804.13
2024-03-04T20:07:25.086Z,100801.72
2024-03-04T20:09:53.981Z,100805.88
2024-03-04T20:12:22.068Z,100805.94
2024-03-04T20:14:50.083Z,100805.56
2024-03-04T20:17:18.088Z,100805.16
2024-03-04T20:19:46.221Z,100809.00
2024-03-04T20:22:14.271Z,100800.09
2024-03-04T20:24:45.122Z,100808.59
2024-03-04T20:27:13.025Z,100801.81
2024-03-04T20:29:41.290Z,100806.34
2024-03-04T20:32:09.350Z,100811.66
2024-03-04T20:34:37.296Z,100808.38
2024-03-04T20:37:05.809Z,100812.81
2024-03-04T20:39:34.196Z,100809.75
2024-03-04T20:42:03.760Z,100813.53
2024-03-04T20:44:31.704Z,100812.78
2024-03-04T20:46:59.892Z,100817.28
2024-03-04T20:49:27.974Z,100809.06
2024-03-04T20:51:58.798Z,100816.78
2024-03-04T20:54:26.743Z,100823.16
2024-03-04T20:56:54.711Z,100819.19
2024-03-04T20:59:25.406Z,100825.84
2024-03-04T21:01:54.531Z,100820.78
2024-03-04T21:04:23.645Z,100824.84
2024-03-04T21:06:51.631Z,100836.38
2024-03-04T21:09:19.588Z,100834.19
2024-03-04T21:11:53.272Z,100827.47
2024-03-04T21:14:22.914Z,100830.41
2024-03-04T21:16:50.947Z,100830.34
2024-03-04T21:19:19.056Z,100832.25
2024-03-04T21:21:47.264Z,100843.94
2024-03-04T21:24:15.245Z,100841.44
2024-03-04T21:26:43.224Z,100835.19
2024-03-04T21:29:11.247Z,100839.75
2024-03-04T21:31:40.619Z,100840.50
2024-03-04T21:34:08.623Z,100836.97
2024-03-04T21:36:36.588Z,100842.66
2024-03-04T21:39:07.788Z,100850.97
2024-03-04T21:41:35.798Z,100852.00
2024-03-04T21:44:04.022Z,100846.94
2024-03-04T21:46:32.063Z,100850.84
2024-03-04T21:49:01.322Z,100855.69
2024-03-04T21:51:29.372Z,100851.28
2024-03-04T21:53:57.366Z,100857.44
2024-03-04T21:56:27.191Z,100853.19
2024-03-04T21:58:55.377Z,100862.91
2024-03-04T22:01:23.832Z,100859.53
2024-03-04T22:03:52.259Z,100856.25
2024-03-04T22:06:22.894Z,100852.72
2024-03-04T22:08:51.103Z,100857.84
2024-03-04T22:11:20.109Z,100853.38
2024-03-04T22:13:48.208Z,100862.03
2024-03-04T22:16:19.005Z,100851.84
2024-03-04T22:18:47.059Z,100863.66
2024-03-04T22:21:15.040Z,100862.63
2024-03-04T22:23:44.548Z,100856.81
2024-03-04T22:26:12.455Z,100852.66
2024-03-04T22:28:40.508Z,100851.16
2024-03-04T22:31:08.696Z,100851.16
2024-03-04T22:33:36.913Z,100852.78
2024-03-04T22:36:06.285Z,100861.53
2024-03-04T22:38:34.248Z,100856.69
2024-03-04T22:41:04.174Z,100858.84
2024-03-04T22:43:32.198Z,100860.09
2024-03-04T22:46:00.230Z,100866.09
2024-03-04T22:48:28.351Z,100863.69
2024-03-04T22:50:56.426Z,100867.22
2024-03-04T22:53:24.531Z,100875.00
2024-03-04T22:55:52.797Z,100879.03
2024-03-04T22:58:22.178Z,100871.38
2024-03-04T23:00:57.251Z,100871.19
2024-03-04T23:03:26.885Z,100863.97
2024-03-04T23:05:54.881Z,100868.03
2024-03-04T23:08:23.706Z,100862.75
2024-03-04T23:10:51.786Z,100871.63
2024-03-04T23:13:21.350Z,100874.09
2024-03-04T23:15:50.448Z,100872.91
2024-03-04T23:18:18.437Z,100872.09
2024-03-04T23:20:48.560Z,100881.75
2024-03-04T23:23:16.584Z,100889.78
2024-03-04T23:25:44.791Z,100889.31
2024-03-04T23:28:12.944Z,100893.63
2024-03-04T23:30:42.689Z,100903.50
2024-03-04T23:33:11.062Z,100906.56
2024-03-04T23:35:39.372Z,100902.97
2024-03-04T23:38:07.401Z,100895.97
2024-03-04T23:40:35.450Z,100910.44
2024-03-04T23:43:03.525Z,100912.97
2024-03-04T23:45:31.488Z,100916.59
2024-03-04T23:48:01.077Z,100922.63
2024-03-04T23:50:28.949Z,100928.03
2024-03-04T23:52:57.093Z,100916.22
2024-03-04T23:55:26.313Z,100926.63
2024-03-04T23:57:54.498Z,100921.53
